createdAt,value
2023-05-21T00:00:37.969Z,88.81
2023-05-21T00:01:37.953Z,88.91
2023-05-21T00:02:38.088Z,88.81
2023-05-21T00:03:38.050Z,88.46
2023-05-21T00:04:38.070Z,88.36
2023-05-21T00:05:39.245Z,88.76
2023-05-21T00:06:37.945Z,87.85
2023-05-21T00:07:37.908Z,88.16
2023-05-21T00:08:37.899Z,88.67
2023-05-21T00:09:37.924Z,88.56
2023-05-21T00:10:37.867Z,87.85
2023-05-21T00:11:37.870Z,88.26
2023-05-21T00:12:37.880Z,88.76
2023-05-21T00:13:37.834Z,88.36
2023-05-21T00:14:37.852Z,88.36
2023-05-21T00:15:38.029Z,88.16
2023-05-21T00:16:37.850Z,88.10
2023-05-21T00:17:37.817Z,88.06
2023-05-21T00:18:37.791Z,88.30
2023-05-21T00:19:37.797Z,88.46
2023-05-21T00:20:37.796Z,88.76
2023-05-21T00:21:37.801Z,88.36
2023-05-21T00:22:37.775Z,88.16
2023-05-21T00:23:37.792Z,88.71
2023-05-21T00:24:37.782Z,89.01
2023-05-21T00:25:37.826Z,89.01
2023-05-21T00:26:37.732Z,88.81
2023-05-21T00:27:37.734Z,89.07
2023-05-21T00:28:37.706Z,89.42
2023-05-21T00:29:37.709Z,89.11
2023-05-21T00:30:37.682Z,89.01
2023-05-21T00:31:37.727Z,88.91
2023-05-21T00:32:37.718Z,89.11
2023-05-21T00:33:37.647Z,89.62
2023-05-21T00:34:37.650Z,89.72
2023-05-21T00:35:37.784Z,89.62
2023-05-21T00:36:37.654Z,89.83
2023-05-21T00:37:37.619Z,89.52
2023-05-21T00:38:37.588Z,89.62
2023-05-21T00:39:37.618Z,89.62
2023-05-21T00:40:37.626Z,89.52
2023-05-21T00:41:37.562Z,90.03
2023-05-21T00:42:37.548Z,89.83
2023-05-21T00:43:37.570Z,89.31
2023-05-21T00:44:37.541Z,89.72
2023-05-21T00:45:38.071Z,89.62
2023-05-21T00:46:37.515Z,89.83
2023-05-21T00:47:37.564Z,89.52
2023-05-21T00:48:37.526Z,89.83
2023-05-21T00:49:37.467Z,89.62
2023-05-21T00:50:37.468Z,89.62
2023-05-21T00:51:37.457Z,89.92
2023-05-21T00:52:37.459Z,89.31
2023-05-21T00:53:37.445Z,89.62
2023-05-21T00:54:37.469Z,89.92
2023-05-21T00:55:37.749Z,89.62
2023-05-21T00:56:37.552Z,90.13
2023-05-21T00:57:37.412Z,90.03
2023-05-21T00:58:37.450Z,90.03
2023-05-21T00:59:38.387Z,89.62
2023-05-21T01:00:37.432Z,90.03
2023-05-21T01:01:37.504Z,90.03
2023-05-21T01:02:37.692Z,90.03
2023-05-21T01:03:37.405Z,89.72
2023-05-21T01:04:37.347Z,89.92
2023-05-21T01:05:37.485Z,89.72
2023-05-21T01:06:37.335Z,89.58
2023-05-21T01:07:37.289Z,89.62
2023-05-21T01:08:37.281Z,89.72
2023-05-21T01:09:37.357Z,89.72
2023-05-21T01:10:37.283Z,89.52
2023-05-21T01:11:37.266Z,89.52
2023-05-21T01:12:37.253Z,89.62
2023-05-21T01:13:37.236Z,89.42
2023-05-21T01:14:37.267Z,89.31
2023-05-21T01:15:37.404Z,89.83
2023-05-21T01:16:37.267Z,89.92
2023-05-21T01:17:37.229Z,89.92
2023-05-21T01:18:37.267Z,89.83
2023-05-21T01:19:37.213Z,89.62
2023-05-21T01:20:37.190Z,89.83
2023-05-21T01:21:37.218Z,89.83
2023-05-21T01:22:37.140Z,90.03
2023-05-21T01:23:37.162Z,90.03
2023-05-21T01:24:37.166Z,90.03
2023-05-21T01:25:37.328Z,90.17
2023-05-21T01:26:37.118Z,90.33
2023-05-21T01:27:37.204Z,90.33
2023-05-21T01:28:37.112Z,90.33
2023-05-21T01:29:37.105Z,90.44
2023-05-21T01:30:37.086Z,90.44
2023-05-21T01:31:37.087Z,90.44
2023-05-21T01:32:37.083Z,90.44
2023-05-21T01:33:37.104Z,90.03
2023-05-21T01:34:37.072Z,90.33
2023-05-21T01:35:37.251Z,90.44
2023-05-21T01:36:37.023Z,90.33
2023-05-21T01:37:37.025Z,90.68
2023-05-21T01:38:36.986Z,90.68
2023-05-21T01:39:37.003Z,90.88
2023-05-21T01:40:36.996Z,90.53
2023-05-21T01:41:36.959Z,90.64
2023-05-21T01:42:36.982Z,90.64
2023-05-21T01:43:36.964Z,90.64
2023-05-21T01:44:36.962Z,90.33
2023-05-21T01:45:37.074Z,90.23
2023-05-21T01:46:36.938Z,90.44
2023-05-21T01:47:36.928Z,90.33
2023-05-21T01:48:36.907Z,90.44
2023-05-21T01:49:36.876Z,90.33
2023-05-21T01:50:36.877Z,90.78
2023-05-21T01:51:36.894Z,90.44
2023-05-21T01:52:36.851Z,90.53
2023-05-21T01:53:36.882Z,90.58
2023-05-21T01:54:36.834Z,90.88
2023-05-21T01:55:37.108Z,90.74
2023-05-21T01:56:36.824Z,90.88
2023-05-21T01:57:36.800Z,90.99
2023-05-21T01:58:36.779Z,91.09
2023-05-21T01:59:36.792Z,91.09
2023-05-21T02:00:36.799Z,91.29
2023-05-21T02:01:36.796Z,90.78
2023-05-21T02:02:36.796Z,90.99
2023-05-21T02:03:36.921Z,90.99
2023-05-21T02:04:36.733Z,91.19
2023-05-21T02:05:36.987Z,91.39
2023-05-21T02:06:36.706Z,91.19
2023-05-21T02:07:36.700Z,91.29
2023-05-21T02:08:36.700Z,91.19
2023-05-21T02:09:36.673Z,91.05
2023-05-21T02:10:36.728Z,91.19
2023-05-21T02:11:36.646Z,90.99
2023-05-21T02:12:36.668Z,90.99
2023-05-21T02:13:36.625Z,91.29
2023-05-21T02:14:36.638Z,90.99
2023-05-21T02:15:36.889Z,91.09
2023-05-21T02:16:36.716Z,91.19
2023-05-21T02:17:36.626Z,91.49
2023-05-21T02:18:36.625Z,91.60
2023-05-21T02:19:36.683Z,91.39
2023-05-21T02:20:36.611Z,91.39
2023-05-21T02:21:36.555Z,90.99
2023-05-21T02:22:36.556Z,91.60
2023-05-21T02:23:36.580Z,91.19
2023-05-21T02:24:36.527Z,91.49
2023-05-21T02:25:36.906Z,91.09
2023-05-21T02:26:36.567Z,91.90
2023-05-21T02:27:36.550Z,91.39
2023-05-21T02:28:36.565Z,91.74
2023-05-21T02:29:36.512Z,91.53
2023-05-21T02:30:36.502Z,92.04
2023-05-21T02:31:36.454Z,91.90
2023-05-21T02:32:36.520Z,91.94
2023-05-21T02:33:36.525Z,91.64
2023-05-21T02:34:36.451Z,91.74
2023-05-21T02:35:36.755Z,91.60
2023-05-21T02:36:36.440Z,91.64
2023-05-21T02:37:36.452Z,91.80
2023-05-21T02:38:36.395Z,91.69
2023-05-21T02:39:36.376Z,91.39
2023-05-21T02:40:36.406Z,91.19
2023-05-21T02:41:36.374Z,91.39
2023-05-21T02:42:36.362Z,91.29
2023-05-21T02:43:36.354Z,91.33
2023-05-21T02:44:36.324Z,91.39
2023-05-21T02:45:36.609Z,91.84
2023-05-21T02:46:36.341Z,91.64
2023-05-21T02:47:36.316Z,91.80
2023-05-21T02:48:36.378Z,91.69
2023-05-21T02:49:36.292Z,91.90
2023-05-21T02:50:36.265Z,91.90
2023-05-21T02:51:36.304Z,92.14
2023-05-21T02:52:36.259Z,91.94
2023-05-21T02:53:36.259Z,92.25
2023-05-21T02:54:36.238Z,92.25
2023-05-21T02:55:36.447Z,92.30
2023-05-21T02:56:36.238Z,92.25
2023-05-21T02:57:36.228Z,92.25
2023-05-21T02:58:36.203Z,92.14
2023-05-21T02:59:36.188Z,91.94
2023-05-21T03:00:36.199Z,92.14
2023-05-21T03:01:36.269Z,92.14
2023-05-21T03:02:36.240Z,91.94
2023-05-21T03:03:36.186Z,92.45
2023-05-21T03:04:36.182Z,92.65
2023-05-21T03:05:36.272Z,92.45
2023-05-21T03:06:36.119Z,92.65
2023-05-21T03:07:37.109Z,92.76
2023-05-21T03:08:36.127Z,92.19
2023-05-21T03:09:36.100Z,92.65
2023-05-21T03:10:36.158Z,92.60
2023-05-21T03:11:36.110Z,92.60
2023-05-21T03:12:36.049Z,92.60
2023-05-21T03:13:36.086Z,92.90
2023-05-21T03:14:36.023Z,93.01
2023-05-21T03:15:36.126Z,92.35
2023-05-21T03:16:36.069Z,93.21
2023-05-21T03:17:36.081Z,92.90
2023-05-21T03:18:35.992Z,93.01
2023-05-21T03:19:36.080Z,92.60
2023-05-21T03:20:35.966Z,92.49
2023-05-21T03:21:35.960Z,93.31
2023-05-21T03:22:35.959Z,93.21
2023-05-21T03:23:35.967Z,93.01
2023-05-21T03:24:35.937Z,93.01
2023-05-21T03:25:36.276Z,93.10
2023-05-21T03:26:35.950Z,92.86
2023-05-21T03:27:35.894Z,92.70
2023-05-21T03:28:35.904Z,93.21
2023-05-21T03:29:35.944Z,92.96
2023-05-21T03:30:35.915Z,92.86
2023-05-21T03:31:35.933Z,92.65
2023-05-21T03:32:35.894Z,92.65
2023-05-21T03:33:35.844Z,92.65
2023-05-21T03:34:35.872Z,92.45
2023-05-21T03:35:36.065Z,92.35
2023-05-21T03:36:35.822Z,92.60
2023-05-21T03:37:35.847Z,92.65
2023-05-21T03:38:37.077Z,92.55
2023-05-21T03:39:36.809Z,92.80
2023-05-21T03:40:35.794Z,92.55
2023-05-21T03:41:35.829Z,92.65
2023-05-21T03:42:35.764Z,92.70
2023-05-21T03:43:35.748Z,93.10
2023-05-21T03:44:35.758Z,92.70
2023-05-21T03:45:35.993Z,92.70
2023-05-21T03:46:35.782Z,92.55
2023-05-21T03:47:35.760Z,92.55
2023-05-21T03:48:35.716Z,92.65
2023-05-21T03:49:35.709Z,92.65
2023-05-21T03:50:35.685Z,92.35
2023-05-21T03:51:35.695Z,92.55
2023-05-21T03:52:35.709Z,92.65
2023-05-21T03:53:35.652Z,92.60
2023-05-21T03:54:35.644Z,92.65
2023-05-21T03:55:35.797Z,93.31
2023-05-21T03:56:36.628Z,92.45
2023-05-21T03:57:35.596Z,92.70
2023-05-21T03:58:35.596Z,92.60
2023-05-21T03:59:35.611Z,92.55
2023-05-21T04:00:35.620Z,92.65
2023-05-21T04:01:35.576Z,92.55
2023-05-21T04:02:35.626Z,92.65
2023-05-21T04:03:36.728Z,92.41
2023-05-21T04:04:35.608Z,92.41
2023-05-21T04:05:35.782Z,92.41
2023-05-21T04:06:35.547Z,92.14
2023-05-21T04:07:35.554Z,92.45
2023-05-21T04:08:35.537Z,92.35
2023-05-21T04:09:36.676Z,92.14
2023-05-21T04:10:36.536Z,92.10
2023-05-21T04:11:35.474Z,92.25
2023-05-21T04:12:35.454Z,92.10
2023-05-21T04:13:35.462Z,91.84
2023-05-21T04:14:35.457Z,91.69
2023-05-21T04:15:35.678Z,91.80
2023-05-21T04:16:35.537Z,91.60
2023-05-21T04:17:35.482Z,91.49
2023-05-21T04:18:35.403Z,91.69
2023-05-21T04:19:35.582Z,91.39
2023-05-21T04:20:35.380Z,91.69
2023-05-21T04:21:35.375Z,91.80
2023-05-21T04:22:35.471Z,91.39
2023-05-21T04:23:35.359Z,91.39
2023-05-21T04:24:35.402Z,91.80
2023-05-21T04:25:35.576Z,91.80
2023-05-21T04:26:35.354Z,91.69
2023-05-21T04:27:35.378Z,91.75
2023-05-21T04:28:35.310Z,91.25
2023-05-21T04:29:35.336Z,91.25
2023-05-21T04:30:35.332Z,91.45
2023-05-21T04:31:35.344Z,91.69
2023-05-21T04:32:35.313Z,91.65
2023-05-21T04:33:35.269Z,91.39
2023-05-21T04:34:35.295Z,91.14
2023-05-21T04:35:35.478Z,91.25
2023-05-21T04:36:35.241Z,91.35
2023-05-21T04:37:35.384Z,91.45
2023-05-21T04:38:35.206Z,91.65
2023-05-21T04:39:35.224Z,91.25
2023-05-21T04:40:36.940Z,91.35
2023-05-21T04:41:35.172Z,91.45
2023-05-21T04:42:35.187Z,91.14
2023-05-21T04:43:35.159Z,91.05
2023-05-21T04:44:35.179Z,91.05
2023-05-21T04:45:35.414Z,91.25
2023-05-21T04:46:35.229Z,91.35
2023-05-21T04:47:35.142Z,91.14
2023-05-21T04:48:35.230Z,91.00
2023-05-21T04:49:35.121Z,90.59
2023-05-21T04:50:35.118Z,90.74
2023-05-21T04:51:35.118Z,90.74
2023-05-21T04:52:35.093Z,90.70
2023-05-21T04:53:35.069Z,90.49
2023-05-21T04:54:35.081Z,90.29
2023-05-21T04:56:06.947Z,90.39
2023-05-21T04:56:35.030Z,90.39
2023-05-21T04:57:35.003Z,90.59
2023-05-21T04:58:35.004Z,90.39
2023-05-21T04:59:35.005Z,90.29
2023-05-21T05:00:35.024Z,90.14
2023-05-21T05:01:34.975Z,90.19
2023-05-21T05:02:35.969Z,89.94
2023-05-21T05:03:35.015Z,90.05
2023-05-21T05:04:34.962Z,90.05
2023-05-21T05:05:35.288Z,89.54
2023-05-21T05:06:34.935Z,89.64
2023-05-21T05:07:34.911Z,89.54
2023-05-21T05:08:34.897Z,88.99
2023-05-21T05:09:34.948Z,88.78
2023-05-21T05:10:34.881Z,88.89
2023-05-21T05:11:34.912Z,88.68
2023-05-21T05:12:34.860Z,88.68
2023-05-21T05:13:34.945Z,88.48
2023-05-21T05:14:34.834Z,88.58
2023-05-21T05:16:06.766Z,88.48
2023-05-21T05:16:34.861Z,88.58
2023-05-21T05:17:34.826Z,88.78
2023-05-21T05:18:34.783Z,88.28
2023-05-21T05:19:34.929Z,89.09
2023-05-21T05:20:34.826Z,88.68
2023-05-21T05:21:34.784Z,88.58
2023-05-21T05:22:34.753Z,88.78
2023-05-21T05:23:34.736Z,88.58
2023-05-21T05:24:34.750Z,88.48
2023-05-21T05:25:34.791Z,88.44
2023-05-21T05:26:34.741Z,88.13
2023-05-21T05:27:36.997Z,87.89
2023-05-21T05:28:34.695Z,87.59
2023-05-21T05:29:34.685Z,87.59
2023-05-21T05:30:34.698Z,87.38
2023-05-21T05:31:34.751Z,87.24
2023-05-21T05:32:34.668Z,86.77
2023-05-21T05:33:34.624Z,86.94
2023-05-21T05:34:34.625Z,86.53
2023-05-21T05:35:34.800Z,86.53
2023-05-21T05:36:34.619Z,86.22
2023-05-21T05:37:34.624Z,86.43
2023-05-21T05:38:34.585Z,86.43
2023-05-21T05:39:34.567Z,86.83
2023-05-21T05:40:34.560Z,86.33
2023-05-21T05:41:34.552Z,86.83
2023-05-21T05:42:34.591Z,86.29
2023-05-21T05:43:34.544Z,85.99
2023-05-21T05:44:34.546Z,85.99
2023-05-21T05:45:34.677Z,86.08
2023-05-21T05:46:34.511Z,85.78
2023-05-21T05:47:34.516Z,85.88
2023-05-21T05:48:34.494Z,85.68
2023-05-21T05:49:34.476Z,86.05
2023-05-21T05:50:34.468Z,85.94
2023-05-21T05:51:34.574Z,84.73
2023-05-21T05:52:34.451Z,84.93
2023-05-21T05:53:34.464Z,84.89
2023-05-21T05:54:34.441Z,84.59
2023-05-21T05:55:34.622Z,83.27
2023-05-21T05:56:34.416Z,83.94
2023-05-21T05:57:34.442Z,83.74
2023-05-21T05:58:34.408Z,83.23
2023-05-21T05:59:34.394Z,83.94
2023-05-21T06:00:34.380Z,83.33
2023-05-21T06:01:34.397Z,83.54
2023-05-21T06:02:34.421Z,83.19
2023-05-21T06:03:34.518Z,82.99
2023-05-21T06:04:34.327Z,82.79
2023-05-21T06:05:34.459Z,83.29
2023-05-21T06:06:34.379Z,82.79
2023-05-21T06:07:34.287Z,82.32
2023-05-21T06:08:37.360Z,83.13
2023-05-21T06:09:34.259Z,82.93
2023-05-21T06:10:34.276Z,82.83
2023-05-21T06:11:34.283Z,83.03
2023-05-21T06:12:35.244Z,82.93
2023-05-21T06:13:34.240Z,83.03
2023-05-21T06:14:34.227Z,81.92
2023-05-21T06:15:34.272Z,82.42
2023-05-21T06:16:34.363Z,81.88
2023-05-21T06:17:34.207Z,82.59
2023-05-21T06:18:34.174Z,82.28
2023-05-21T06:19:34.302Z,81.88
2023-05-21T06:20:34.169Z,81.68
2023-05-21T06:21:34.146Z,82.49
2023-05-21T06:22:34.144Z,82.53
2023-05-21T06:23:34.115Z,82.18
2023-05-21T06:24:34.194Z,83.03
2023-05-21T06:25:34.210Z,82.42
2023-05-21T06:26:34.109Z,82.18
2023-05-21T06:27:34.094Z,81.88
2023-05-21T06:28:34.118Z,81.37
2023-05-21T06:29:34.102Z,81.64
2023-05-21T06:30:34.051Z,81.88
2023-05-21T06:31:34.046Z,81.03
2023-05-21T06:32:34.210Z,81.44
2023-05-21T06:33:34.178Z,81.13
2023-05-21T06:34:34.033Z,81.54
2023-05-21T06:35:34.137Z,81.13
2023-05-21T06:36:34.004Z,81.44
2023-05-21T06:37:33.994Z,81.34
2023-05-21T06:38:34.015Z,81.13
2023-05-21T06:39:34.018Z,81.60
2023-05-21T06:40:33.965Z,81.44
2023-05-21T06:41:33.961Z,81.34
2023-05-21T06:42:33.945Z,81.50
2023-05-21T06:43:34.010Z,81.84
2023-05-21T06:44:33.914Z,81.30
2023-05-21T06:45:33.938Z,81.50
2023-05-21T06:46:34.082Z,81.40
2023-05-21T06:47:33.925Z,81.44
2023-05-21T06:48:33.882Z,81.54
2023-05-21T06:49:33.859Z,80.93
2023-05-21T06:50:33.849Z,81.03
2023-05-21T06:51:33.856Z,81.30
2023-05-21T06:52:33.841Z,81.50
2023-05-21T06:53:33.844Z,81.50
2023-05-21T06:54:33.795Z,81.50
2023-05-21T06:55:33.888Z,81.40
2023-05-21T06:56:33.785Z,80.79
2023-05-21T06:57:33.789Z,80.15
2023-05-21T06:58:33.789Z,80.15
2023-05-21T06:59:33.761Z,80.15
2023-05-21T07:00:33.759Z,80.35
2023-05-21T07:01:33.775Z,79.94
2023-05-21T07:02:33.801Z,79.91
2023-05-21T07:03:33.764Z,79.30
2023-05-21T07:04:33.707Z,78.46
2023-05-21T07:05:33.697Z,77.42
2023-05-21T07:06:33.688Z,77.48
2023-05-21T07:07:33.714Z,77.34
2023-05-21T07:08:33.663Z,76.43
2023-05-21T07:09:33.657Z,76.14
2023-05-21T07:10:33.651Z,75.33
2023-05-21T07:11:33.641Z,75.26
2023-05-21T07:12:33.642Z,73.95
2023-05-21T07:13:33.628Z,74.32
2023-05-21T07:14:33.593Z,73.27
2023-05-21T07:15:33.661Z,72.84
2023-05-21T07:16:33.653Z,72.84
2023-05-21T07:17:33.614Z,71.73
2023-05-21T07:18:33.575Z,71.63
2023-05-21T07:19:33.624Z,71.43
2023-05-21T07:20:33.558Z,73.00
2023-05-21T07:21:33.533Z,71.06
2023-05-21T07:22:33.521Z,70.23
2023-05-21T07:23:33.524Z,69.92
2023-05-21T07:24:33.508Z,71.00
2023-05-21T07:25:33.493Z,71.47
2023-05-21T07:26:33.478Z,71.23
2023-05-21T07:27:33.472Z,70.59
2023-05-21T07:28:33.464Z,70.53
2023-05-21T07:29:33.492Z,70.23
2023-05-21T07:30:33.454Z,71.23
2023-05-21T07:31:33.476Z,69.26
2023-05-21T07:32:33.495Z,68.22
2023-05-21T07:33:33.393Z,68.05
2023-05-21T07:34:33.409Z,68.82
2023-05-21T07:35:33.400Z,68.85
2023-05-21T07:36:33.405Z,68.46
2023-05-21T07:37:33.399Z,69.06
2023-05-21T07:38:34.367Z,69.12
2023-05-21T07:39:33.386Z,68.52
2023-05-21T07:40:33.359Z,69.06
2023-05-21T07:41:33.437Z,69.06
2023-05-21T07:42:33.314Z,69.89
2023-05-21T07:43:33.337Z,70.93
2023-05-21T07:44:33.333Z,70.50
2023-05-21T07:45:33.300Z,70.19
2023-05-21T07:46:33.299Z,70.23
2023-05-21T07:47:33.314Z,70.32
2023-05-21T07:48:35.430Z,70.83
2023-05-21T07:49:34.261Z,70.09
2023-05-21T07:50:33.275Z,70.09
2023-05-21T07:51:33.236Z,69.29
2023-05-21T07:52:33.260Z,69.79
2023-05-21T07:53:33.220Z,70.23
2023-05-21T07:54:33.310Z,70.32
2023-05-21T07:55:33.196Z,70.96
2023-05-21T07:56:33.191Z,70.86
2023-05-21T07:57:33.217Z,71.33
2023-05-21T07:58:33.160Z,70.79
2023-05-21T07:59:33.162Z,70.39
2023-05-21T08:00:33.157Z,69.86
2023-05-21T08:01:33.166Z,69.02
2023-05-21T08:02:33.229Z,68.19
2023-05-21T08:03:33.306Z,67.66
2023-05-21T08:04:33.156Z,67.02
2023-05-21T08:05:33.123Z,65.23
2023-05-21T08:06:33.088Z,63.93
2023-05-21T08:07:33.089Z,63.40
2023-05-21T08:08:33.064Z,63.63
2023-05-21T08:09:33.083Z,63.13
2023-05-21T08:10:33.042Z,63.40
2023-05-21T08:11:33.090Z,63.70
2023-05-21T08:12:33.040Z,63.10
2023-05-21T08:13:33.026Z,62.60
2023-05-21T08:14:33.042Z,63.47
2023-05-21T08:15:32.996Z,63.17
2023-05-21T08:16:33.023Z,62.53
2023-05-21T08:17:33.013Z,63.03
2023-05-21T08:18:32.998Z,62.63
2023-05-21T08:19:33.052Z,62.10
2023-05-21T08:20:32.972Z,61.87
2023-05-21T08:21:32.942Z,62.18
2023-05-21T08:22:32.936Z,62.15
2023-05-21T08:23:32.938Z,62.37
2023-05-21T08:24:32.935Z,63.40
2023-05-21T08:25:32.893Z,62.60
2023-05-21T08:26:32.877Z,62.77
2023-05-21T08:27:32.889Z,62.48
2023-05-21T08:28:32.876Z,62.37
2023-05-21T08:29:32.857Z,62.50
2023-05-21T08:30:32.842Z,62.37
2023-05-21T08:31:32.875Z,62.81
2023-05-21T08:32:32.841Z,62.45
2023-05-21T08:33:32.820Z,61.85
2023-05-21T08:34:32.820Z,61.71
2023-05-21T08:35:32.792Z,60.72
2023-05-21T08:36:32.878Z,60.55
2023-05-21T08:37:32.782Z,61.85
2023-05-21T08:38:32.777Z,62.48
2023-05-21T08:39:32.765Z,61.57
2023-05-21T08:40:32.762Z,62.50
2023-05-21T08:41:32.731Z,62.60
2023-05-21T08:43:33.745Z,62.34
2023-05-21T08:44:32.732Z,62.24
2023-05-21T08:45:32.713Z,61.77
2023-05-21T08:46:32.712Z,62.37
2023-05-21T08:47:32.678Z,62.81
2023-05-21T08:48:32.675Z,63.23
2023-05-21T08:49:32.680Z,63.63
2023-05-21T08:50:32.648Z,64.60
2023-05-21T08:51:32.644Z,64.20
2023-05-21T08:52:32.627Z,64.13
2023-05-21T08:53:32.617Z,64.43
2023-05-21T08:54:32.657Z,64.00
2023-05-21T08:55:32.600Z,64.20
2023-05-21T08:56:32.599Z,63.20
2023-05-21T08:57:32.617Z,62.90
2023-05-21T08:58:32.569Z,63.83
2023-05-21T08:59:32.556Z,63.03
2023-05-21T09:00:32.561Z,63.40
2023-05-21T09:01:32.562Z,62.87
2023-05-21T09:02:32.548Z,62.37
2023-05-21T09:03:32.634Z,62.74
2023-05-21T09:04:32.563Z,62.34
2023-05-21T09:05:32.506Z,62.68
2023-05-21T09:06:32.541Z,62.02
2023-05-21T09:07:32.505Z,60.50
2023-05-21T09:08:32.494Z,59.91
2023-05-21T09:09:32.471Z,60.30
2023-05-21T09:10:32.465Z,60.03
2023-05-21T09:11:32.433Z,60.40
2023-05-21T09:12:32.446Z,59.78
2023-05-21T09:13:32.448Z,59.55
2023-05-21T09:14:32.414Z,57.68
2023-05-21T09:15:32.410Z,56.91
2023-05-21T09:16:32.422Z,56.21
2023-05-21T09:17:32.392Z,58.03
2023-05-21T09:18:32.382Z,57.66
2023-05-21T09:19:32.671Z,58.28
2023-05-21T09:20:32.355Z,57.49
2023-05-21T09:21:32.396Z,59.01
2023-05-21T09:22:32.323Z,59.06
2023-05-21T09:23:32.327Z,60.16
2023-05-21T09:24:33.718Z,60.59
2023-05-21T09:25:32.395Z,59.79
2023-05-21T09:26:32.374Z,60.29
2023-05-21T09:27:32.284Z,60.09
2023-05-21T09:28:32.286Z,60.49
2023-05-21T09:29:32.252Z,60.22
2023-05-21T09:30:34.809Z,60.92
2023-05-21T09:31:32.380Z,60.49
2023-05-21T09:32:32.309Z,59.89
2023-05-21T09:33:32.281Z,59.99
2023-05-21T09:34:32.209Z,59.79
2023-05-21T09:35:32.187Z,60.26
2023-05-21T09:36:32.244Z,58.87
2023-05-21T09:37:32.203Z,59.17
2023-05-21T09:38:32.191Z,59.36
2023-05-21T09:39:33.174Z,59.64
2023-05-21T09:40:32.189Z,58.64
2023-05-21T09:41:32.155Z,58.04
2023-05-21T09:42:32.125Z,58.61
2023-05-21T09:43:32.157Z,58.58
2023-05-21T09:44:32.110Z,57.86
2023-05-21T09:45:32.103Z,57.43
2023-05-21T09:46:32.144Z,56.74
2023-05-21T09:47:32.157Z,57.46
2023-05-21T09:48:32.099Z,57.06
2023-05-21T09:49:32.056Z,57.93
2023-05-21T09:50:32.050Z,58.03
2023-05-21T09:51:33.315Z,56.74
2023-05-21T09:52:32.040Z,57.86
2023-05-21T09:53:32.025Z,57.56
2023-05-21T09:54:32.024Z,57.76
2023-05-21T09:55:32.095Z,58.18
2023-05-21T09:56:32.016Z,58.48
2023-05-21T09:57:32.004Z,59.21
2023-05-21T09:58:31.957Z,59.21
2023-05-21T09:59:32.007Z,59.01
2023-05-21T10:00:32.021Z,59.83
2023-05-21T10:01:32.033Z,60.24
2023-05-21T10:02:32.971Z,59.70
2023-05-21T10:03:31.940Z,59.70
2023-05-21T10:04:31.948Z,59.34
2023-05-21T10:05:31.933Z,60.60
2023-05-21T10:06:31.955Z,59.11
2023-05-21T10:07:31.911Z,59.51
2023-05-21T10:08:31.868Z,58.91
2023-05-21T10:09:31.864Z,59.41
2023-05-21T10:10:32.030Z,58.44
2023-05-21T10:11:31.858Z,58.51
2023-05-21T10:12:31.853Z,59.74
2023-05-21T10:13:31.834Z,59.94
2023-05-21T10:14:31.862Z,58.94
2023-05-21T10:15:31.821Z,59.34
2023-05-21T10:16:31.882Z,59.53
2023-05-21T10:17:31.857Z,59.81
2023-05-21T10:18:31.771Z,59.21
2023-05-21T10:19:31.836Z,58.04
2023-05-21T10:20:31.759Z,58.51
2023-05-21T10:21:31.749Z,58.61
2023-05-21T10:22:31.780Z,58.51
2023-05-21T10:23:32.753Z,57.52
2023-05-21T10:24:31.729Z,58.11
2023-05-21T10:25:31.803Z,59.78
2023-05-21T10:26:31.725Z,57.89
2023-05-21T10:27:32.798Z,57.49
2023-05-21T10:28:31.692Z,57.49
2023-05-21T10:29:31.715Z,56.89
2023-05-21T10:30:31.675Z,56.96
2023-05-21T10:31:31.647Z,57.76
2023-05-21T10:32:31.876Z,57.36
2023-05-21T10:33:31.691Z,57.86
2023-05-21T10:34:31.627Z,58.03
2023-05-21T10:35:31.609Z,57.56
2023-05-21T10:36:31.599Z,57.46
2023-05-21T10:37:31.601Z,57.76
2023-05-21T10:38:31.596Z,57.56
2023-05-21T10:39:31.601Z,57.66
2023-05-21T10:40:31.559Z,57.56
2023-05-21T10:41:31.552Z,57.76
2023-05-21T10:42:31.557Z,57.36
2023-05-21T10:43:31.560Z,58.03
2023-05-21T10:44:31.544Z,57.24
2023-05-21T10:45:31.559Z,57.14
2023-05-21T10:46:31.509Z,56.54
2023-05-21T10:47:31.517Z,55.44
2023-05-21T10:48:31.517Z,56.54
2023-05-21T10:49:31.506Z,56.14
2023-05-21T10:50:31.527Z,55.55
2023-05-21T10:51:31.464Z,56.34
2023-05-21T10:52:31.450Z,54.65
2023-05-21T10:53:31.446Z,55.94
2023-05-21T10:54:31.435Z,55.44
2023-05-21T10:55:31.411Z,54.95
2023-05-21T10:57:03.427Z,54.85
2023-05-21T10:57:31.434Z,56.14
2023-05-21T10:58:31.384Z,56.84
2023-05-21T10:59:31.410Z,56.44
2023-05-21T11:00:31.366Z,56.64
2023-05-21T11:01:31.447Z,56.81
2023-05-21T11:02:31.497Z,57.93
2023-05-21T11:03:32.512Z,57.51
2023-05-21T11:04:31.334Z,58.03
2023-05-21T11:05:31.396Z,57.70
2023-05-21T11:06:31.312Z,57.51
2023-05-21T11:07:31.387Z,56.71
2023-05-21T11:08:31.312Z,56.98
2023-05-21T11:09:31.298Z,56.19
2023-05-21T11:10:31.279Z,56.76
2023-05-21T11:11:31.263Z,56.26
2023-05-21T11:12:31.277Z,55.66
2023-05-21T11:13:31.305Z,54.87
2023-05-21T11:14:31.232Z,55.96
2023-05-21T11:15:31.236Z,55.99
2023-05-21T11:16:31.264Z,56.19
2023-05-21T11:17:31.243Z,56.36
2023-05-21T11:18:31.210Z,54.08
2023-05-21T11:19:33.286Z,55.27
2023-05-21T11:20:32.183Z,54.17
2023-05-21T11:21:31.242Z,54.08
2023-05-21T11:22:31.155Z,53.78
2023-05-21T11:23:31.150Z,54.38
2023-05-21T11:24:31.158Z,54.08
2023-05-21T11:25:31.129Z,54.08
2023-05-21T11:26:31.112Z,53.58
2023-05-21T11:27:31.138Z,53.78
2023-05-21T11:28:31.104Z,54.08
2023-05-21T11:29:31.170Z,53.56
2023-05-21T11:30:31.104Z,53.45
2023-05-21T11:31:31.098Z,54.35
2023-05-21T11:32:31.087Z,53.66
2023-05-21T11:33:32.053Z,54.92
2023-05-21T11:34:31.071Z,54.72
2023-05-21T11:35:31.086Z,54.15
2023-05-21T11:36:31.023Z,54.38
2023-05-21T11:37:31.048Z,55.49
2023-05-21T11:38:31.115Z,55.40
2023-05-21T11:39:31.026Z,54.80
2023-05-21T11:40:31.030Z,55.52
2023-05-21T11:41:30.970Z,55.40
2023-05-21T11:42:31.465Z,55.42
2023-05-21T11:43:30.956Z,55.62
2023-05-21T11:44:30.951Z,56.26
2023-05-21T11:45:30.955Z,54.57
2023-05-21T11:46:30.941Z,54.70
2023-05-21T11:47:30.919Z,55.40
2023-05-21T11:48:32.406Z,55.69
2023-05-21T11:49:30.896Z,55.29
2023-05-21T11:50:30.911Z,54.97
2023-05-21T11:51:30.868Z,54.94
2023-05-21T11:52:30.872Z,54.55
2023-05-21T11:53:30.877Z,53.98
2023-05-21T11:54:30.834Z,55.00
2023-05-21T11:55:30.832Z,55.02
2023-05-21T11:56:30.817Z,55.00
2023-05-21T11:57:30.921Z,55.99
2023-05-21T11:58:30.803Z,55.62
2023-05-21T11:59:30.851Z,55.22
2023-05-21T12:00:30.795Z,55.42
2023-05-21T12:01:30.761Z,56.61
2023-05-21T12:02:30.803Z,56.61
2023-05-21T12:03:30.853Z,56.61
2023-05-21T12:04:30.740Z,56.41
2023-05-21T12:05:30.740Z,56.29
2023-05-21T12:06:30.872Z,56.88
2023-05-21T12:07:30.745Z,55.89
2023-05-21T12:08:30.718Z,56.41
2023-05-21T12:09:30.695Z,56.81
2023-05-21T12:10:30.701Z,56.61
2023-05-21T12:11:30.707Z,56.61
2023-05-21T12:12:41.775Z,56.12
2023-05-21T12:13:32.674Z,56.41
2023-05-21T12:14:30.729Z,55.69
2023-05-21T12:15:30.627Z,56.78
2023-05-21T12:16:30.644Z,57.08
2023-05-21T12:17:30.645Z,57.25
2023-05-21T12:18:30.624Z,56.46
2023-05-21T12:19:30.749Z,56.16
2023-05-21T12:20:30.599Z,56.36
2023-05-21T12:21:30.567Z,56.76
2023-05-21T12:22:30.570Z,55.99
2023-05-21T12:23:30.582Z,56.29
2023-05-21T12:24:30.546Z,56.91
2023-05-21T12:25:30.557Z,56.41
2023-05-21T12:26:30.534Z,56.61
2023-05-21T12:27:30.534Z,56.61
2023-05-21T12:28:30.504Z,56.54
2023-05-21T12:29:30.489Z,56.84
2023-05-21T12:30:30.508Z,56.44
2023-05-21T12:31:30.548Z,56.94
2023-05-21T12:32:30.495Z,57.34
2023-05-21T12:33:30.456Z,57.43
2023-05-21T12:34:30.457Z,57.53
2023-05-21T12:35:30.540Z,56.74
2023-05-21T12:36:30.468Z,57.51
2023-05-21T12:37:30.412Z,56.68
2023-05-21T12:38:30.422Z,56.21
2023-05-21T12:39:30.437Z,57.11
2023-05-21T12:40:30.395Z,56.91
2023-05-21T12:41:30.371Z,56.71
2023-05-21T12:42:30.396Z,57.70
2023-05-21T12:43:30.387Z,57.70
2023-05-21T12:44:30.349Z,57.93
2023-05-21T12:45:30.339Z,58.53
2023-05-21T12:46:30.389Z,58.73
2023-05-21T12:47:30.406Z,58.62
2023-05-21T12:48:30.311Z,58.62
2023-05-21T12:49:30.303Z,59.32
2023-05-21T12:50:30.291Z,59.22
2023-05-21T12:51:30.293Z,59.59
2023-05-21T12:52:30.270Z,59.49
2023-05-21T12:53:30.299Z,58.90